createdAt,value
2017-06-08T00:01:52.030Z,87.80
2017-06-08T00:04:20.346Z,87.60
2017-06-08T00:06:48.895Z,87.50
2017-06-08T00:09:17.375Z,87.80
2017-06-08T00:11:46.596Z,88.60
2017-06-08T00:14:14.919Z,88.40
2017-06-08T00:16:43.331Z,88.80
2017-06-08T00:19:12.434Z,89.60
2017-06-08T00:21:40.910Z,89.40
2017-06-08T00:24:10.008Z,89.90
2017-06-08T00:26:38.275Z,89.90
2017-06-08T00:29:07.472Z,90.20
2017-06-08T00:31:36.538Z,90.50
2017-06-08T00:34:05.051Z,90.40
2017-06-08T00:36:33.422Z,90.60
2017-06-08T00:39:02.503Z,91.00
2017-06-08T00:41:30.899Z,91.00
2017-06-08T00:43:59.365Z,91.10
2017-06-08T00:46:27.759Z,91.20
2017-06-08T00:48:56.831Z,91.30
2017-06-08T00:51:25.511Z,91.30
2017-06-08T00:53:53.915Z,91.50
2017-06-08T00:56:23.011Z,91.50
2017-06-08T00:58:52.111Z,91.40
2017-06-08T01:01:21.186Z,91.30
2017-06-08T01:03:49.783Z,91.30
2017-06-08T01:06:18.170Z,91.20
2017-06-08T01:08:46.538Z,91.20
2017-06-08T01:11:14.887Z,91.00
2017-06-08T01:13:43.191Z,90.90
2017-06-08T01:16:12.279Z,90.60
2017-06-08T01:18:40.666Z,90.50
2017-06-08T01:21:15.381Z,90.50
2017-06-08T01:23:44.447Z,90.10
2017-06-08T01:26:12.763Z,90.00
2017-06-08T01:28:41.822Z,89.40
2017-06-08T01:31:10.440Z,89.40
2017-06-08T01:33:38.857Z,89.10
2017-06-08T01:36:07.194Z,88.80
2017-06-08T01:38:36.288Z,88.30
2017-06-08T01:41:04.676Z,88.10
2017-06-08T01:43:33.985Z,88.00
2017-06-08T01:46:03.066Z,87.50
2017-06-08T01:48:32.114Z,87.50
2017-06-08T01:51:00.536Z,87.30
2017-06-08T01:53:28.914Z,87.30
2017-06-08T01:55:58.215Z,86.60
2017-06-08T01:58:26.523Z,86.40
2017-06-08T02:00:54.834Z,86.40
2017-06-08T02:03:23.162Z,86.20
2017-06-08T02:05:51.483Z,85.60
2017-06-08T02:08:19.902Z,85.40
2017-06-08T02:10:48.286Z,85.10
2017-06-08T02:13:17.483Z,84.80
2017-06-08T02:15:46.681Z,84.60
2017-06-08T02:18:15.984Z,84.40
2017-06-08T02:20:44.467Z,84.90
2017-06-08T02:23:12.839Z,84.30
2017-06-08T02:25:41.174Z,84.30
2017-06-08T02:28:09.496Z,83.90
2017-06-08T02:30:37.834Z,83.70
2017-06-08T02:33:06.239Z,83.50
2017-06-08T02:35:35.148Z,83.00
2017-06-08T02:38:04.198Z,82.40
2017-06-08T02:40:32.616Z,83.10
2017-06-08T02:43:00.987Z,82.20
2017-06-08T02:45:30.030Z,81.70
2017-06-08T02:47:58.560Z,81.00
2017-06-08T02:50:27.660Z,81.20
2017-06-08T02:52:55.967Z,81.10
2017-06-08T02:55:24.403Z,80.80
2017-06-08T02:57:53.727Z,80.20
2017-06-08T03:00:22.058Z,80.20
2017-06-08T03:02:51.359Z,79.70
2017-06-08T03:05:19.765Z,79.50
2017-06-08T03:07:48.865Z,79.20
2017-06-08T03:10:18.056Z,78.80
2017-06-08T03:12:46.537Z,78.70
2017-06-08T03:15:15.587Z,78.80
2017-06-08T03:17:44.007Z,78.10
2017-06-08T03:20:13.095Z,77.60
2017-06-08T03:22:41.488Z,77.50
2017-06-08T03:25:10.589Z,76.60
2017-06-08T03:27:39.804Z,75.80
2017-06-08T03:30:08.151Z,76.10
2017-06-08T03:32:37.577Z,75.70
2017-06-08T03:35:05.932Z,75.70
2017-06-08T03:37:34.403Z,75.00
2017-06-08T03:40:03.498Z,74.10
2017-06-08T03:42:32.604Z,74.20
2017-06-08T03:45:01.895Z,74.00
2017-06-08T03:47:30.270Z,73.90
2017-06-08T03:49:58.564Z,74.10
2017-06-08T03:52:27.032Z,73.70
2017-06-08T03:54:56.111Z,73.20
2017-06-08T03:57:25.203Z,73.50
2017-06-08T03:59:53.504Z,73.40
2017-06-08T04:02:22.800Z,73.30
2017-06-08T04:04:51.899Z,73.60
2017-06-08T04:07:20.299Z,73.50
2017-06-08T04:09:48.636Z,73.40
2017-06-08T04:12:17.703Z,72.90
2017-06-08T04:14:46.061Z,73.40
2017-06-08T04:17:14.394Z,73.60
2017-06-08T04:19:44.259Z,73.90
2017-06-08T04:22:12.551Z,73.80
2017-06-08T04:24:41.059Z,73.90
2017-06-08T04:27:09.543Z,74.30
2017-06-08T04:29:37.826Z,74.00
2017-06-08T04:32:06.309Z,74.30
2017-06-08T04:34:35.370Z,74.60
2017-06-08T04:37:03.683Z,74.50
2017-06-08T04:39:32.747Z,74.40
2017-06-08T04:42:01.078Z,74.30
2017-06-08T04:44:29.385Z,74.20
2017-06-08T04:46:58.112Z,74.20
2017-06-08T04:49:27.201Z,74.30
2017-06-08T04:51:56.265Z,74.50
2017-06-08T04:54:24.671Z,74.50
2017-06-08T04:56:53.736Z,75.10
2017-06-08T04:59:22.065Z,74.40
2017-06-08T05:01:50.375Z,74.10
2017-06-08T05:04:18.999Z,74.40
2017-06-08T05:06:47.286Z,74.40
2017-06-08T05:09:16.373Z,74.60
2017-06-08T05:11:44.755Z,74.50
2017-06-08T05:14:13.858Z,74.40
2017-06-08T05:16:42.228Z,74.30
2017-06-08T05:19:10.535Z,73.90
2017-06-08T05:21:38.988Z,73.40
2017-06-08T05:24:08.076Z,73.00
2017-06-08T05:26:37.169Z,72.50
2017-06-08T05:29:06.364Z,71.90
2017-06-08T05:31:34.703Z,71.90
2017-06-08T05:34:03.346Z,71.70
2017-06-08T05:36:31.667Z,71.40
2017-06-08T05:38:59.992Z,70.80
2017-06-08T05:41:29.184Z,69.60
2017-06-08T05:43:58.277Z,69.50
2017-06-08T05:46:27.675Z,68.50
2017-06-08T05:48:56.060Z,68.30
2017-06-08T05:51:25.153Z,69.30
2017-06-08T05:53:53.490Z,69.30
2017-06-08T05:56:21.798Z,68.60
2017-06-08T05:58:50.175Z,68.20
2017-06-08T06:01:19.246Z,68.40
2017-06-08T06:03:47.674Z,68.20
2017-06-08T06:06:16.008Z,68.20
2017-06-08T06:08:44.277Z,68.20
2017-06-08T06:11:12.584Z,68.40
2017-06-08T06:13:41.707Z,68.70
2017-06-08T06:16:10.673Z,68.30
2017-06-08T06:18:39.767Z,67.40
2017-06-08T06:21:08.243Z,67.30
2017-06-08T06:23:36.578Z,66.50
2017-06-08T06:26:04.879Z,66.60
2017-06-08T06:28:33.205Z,66.80
2017-06-08T06:31:01.559Z,67.70
2017-06-08T06:33:29.931Z,67.80
2017-06-08T06:35:58.211Z,68.80
2017-06-08T06:38:27.498Z,69.90
2017-06-08T06:40:55.819Z,70.00
2017-06-08T06:43:24.251Z,70.40
2017-06-08T06:45:53.340Z,71.50
2017-06-08T06:48:21.652Z,71.30
2017-06-08T06:50:50.019Z,72.90
2017-06-08T06:53:19.214Z,73.30
2017-06-08T06:55:47.555Z,73.20
2017-06-08T06:58:15.858Z,73.70
2017-06-08T07:00:45.151Z,73.30
2017-06-08T07:03:13.543Z,73.50
2017-06-08T07:05:42.703Z,76.00
2017-06-08T07:08:11.111Z,76.00
2017-06-08T07:10:39.562Z,76.80
2017-06-08T07:13:08.118Z,76.70
2017-06-08T07:15:36.423Z,76.80
2017-06-08T07:18:05.528Z,78.60
2017-06-08T07:20:33.850Z,78.40
2017-06-08T07:23:02.159Z,79.60
2017-06-08T07:25:30.576Z,79.90
2017-06-08T07:27:58.894Z,79.90
2017-06-08T07:30:27.427Z,80.00
2017-06-08T07:32:55.760Z,82.60
2017-06-08T07:35:24.071Z,84.30
2017-06-08T07:37:52.405Z,82.80
2017-06-08T07:40:20.705Z,84.50
2017-06-08T07:42:49.160Z,84.20
2017-06-08T07:45:17.599Z,85.30
2017-06-08T07:47:47.067Z,85.60
2017-06-08T07:50:15.591Z,85.50
2017-06-08T07:52:44.665Z,86.60
2017-06-08T07:55:13.274Z,86.50
2017-06-08T07:57:41.587Z,85.30
2017-06-08T08:00:10.171Z,85.50
2017-06-08T08:02:50.379Z,84.10
2017-06-08T08:05:19.670Z,85.10
2017-06-08T08:07:48.771Z,84.80
2017-06-08T08:10:17.259Z,84.80
2017-06-08T08:12:45.631Z,85.00
2017-06-08T08:15:14.836Z,86.10
2017-06-08T08:17:43.507Z,86.10
2017-06-08T08:20:12.102Z,85.20
2017-06-08T08:22:40.855Z,85.60
2017-06-08T08:25:09.266Z,85.30
2017-06-08T08:27:37.675Z,85.70
2017-06-08T08:30:06.944Z,84.20
2017-06-08T08:32:35.320Z,84.00
2017-06-08T08:35:04.393Z,84.60
2017-06-08T08:37:33.595Z,84.50
2017-06-08T08:40:02.704Z,83.50
2017-06-08T08:42:31.061Z,83.50
2017-06-08T08:44:59.463Z,84.30
2017-06-08T08:47:28.063Z,83.10
2017-06-08T08:49:56.392Z,83.50
2017-06-08T08:52:25.523Z,81.80
2017-06-08T08:54:53.900Z,82.00
2017-06-08T08:57:22.996Z,81.70
2017-06-08T08:59:52.123Z,81.40
2017-06-08T09:02:20.486Z,81.30
2017-06-08T09:04:49.050Z,80.00
2017-06-08T09:07:18.144Z,80.40
2017-06-08T09:09:46.593Z,80.40
2017-06-08T09:12:16.641Z,80.40
2017-06-08T09:14:45.119Z,80.40
2017-06-08T09:17:13.510Z,80.80
2017-06-08T09:19:41.854Z,81.60
2017-06-08T09:22:10.969Z,81.90
2017-06-08T09:24:40.046Z,81.30
2017-06-08T09:27:08.544Z,81.20
2017-06-08T09:29:37.616Z,80.60
2017-06-08T09:32:06.020Z,80.40
2017-06-08T09:34:34.392Z,80.20
2017-06-08T09:37:03.489Z,80.00
2017-06-08T09:39:32.597Z,79.60
2017-06-08T09:42:01.724Z,78.00
2017-06-08T09:44:30.337Z,77.90
2017-06-08T09:46:58.635Z,77.30
2017-06-08T09:49:27.805Z,76.70
2017-06-08T09:51:56.921Z,76.80
2017-06-08T09:54:25.406Z,76.70
2017-06-08T09:56:54.612Z,75.50
2017-06-08T09:59:23.699Z,76.00
2017-06-08T10:01:53.006Z,75.60
2017-06-08T10:04:22.071Z,75.40
2017-06-08T10:06:50.376Z,75.30
2017-06-08T10:09:19.463Z,75.40
2017-06-08T10:11:48.559Z,75.10
2017-06-08T10:14:17.152Z,75.00
2017-06-08T10:16:45.471Z,74.30
2017-06-08T10:19:13.794Z,74.10
2017-06-08T10:21:42.901Z,75.10
2017-06-08T10:24:11.295Z,74.90
2017-06-08T10:26:39.647Z,74.50
2017-06-08T10:29:08.030Z,74.60
2017-06-08T10:31:37.323Z,74.40
2017-06-08T10:34:05.815Z,74.40
2017-06-08T10:36:34.193Z,74.00
2017-06-08T10:39:02.659Z,73.20
2017-06-08T10:41:30.977Z,72.50
2017-06-08T10:43:59.519Z,72.50
2017-06-08T10:46:27.864Z,71.60
2017-06-08T10:48:56.179Z,71.70
2017-06-08T10:51:24.556Z,70.40
2017-06-08T10:53:52.995Z,69.80
2017-06-08T10:56:21.355Z,69.50
2017-06-08T10:58:49.770Z,68.50
2017-06-08T11:01:18.076Z,67.60
2017-06-08T11:03:46.657Z,67.70
2017-06-08T11:06:15.718Z,66.20
2017-06-08T11:08:44.162Z,66.20
2017-06-08T11:11:12.472Z,66.00
2017-06-08T11:13:40.885Z,66.40
2017-06-08T11:16:09.215Z,67.40
2017-06-08T11:18:37.543Z,66.70
2017-06-08T11:21:05.866Z,67.70
2017-06-08T11:23:34.359Z,67.10
2017-06-08T11:26:02.877Z,66.80
2017-06-08T11:28:31.458Z,65.70
2017-06-08T11:30:59.800Z,64.50
2017-06-08T11:33:28.110Z,63.80
2017-06-08T11:35:57.191Z,62.20
2017-06-08T11:38:26.608Z,61.60
2017-06-08T11:40:54.987Z,61.60
2017-06-08T11:43:24.846Z,61.50
2017-06-08T11:45:53.185Z,61.40
2017-06-08T11:48:21.514Z,61.50
2017-06-08T11:50:50.847Z,60.70
2017-06-08T11:53:19.286Z,60.70
2017-06-08T11:55:47.619Z,61.80
2017-06-08T11:58:15.949Z,60.30
2017-06-08T12:00:44.262Z,59.50
2017-06-08T12:03:12.595Z,58.00
2017-06-08T12:05:41.795Z,57.70
2017-06-08T12:08:10.311Z,57.40
2017-06-08T12:10:39.076Z,56.90
2017-06-08T12:13:07.595Z,57.00
2017-06-08T12:15:35.957Z,56.40
2017-06-08T12:18:04.289Z,56.50
2017-06-08T12:20:32.632Z,56.70
2017-06-08T12:23:00.954Z,56.60
2017-06-08T12:25:29.477Z,55.70
2017-06-08T12:27:57.859Z,55.60
2017-06-08T12:30:26.926Z,56.30
2017-06-08T12:32:55.439Z,56.10
2017-06-08T12:35:24.027Z,55.90
2017-06-08T12:37:52.356Z,55.70
2017-06-08T12:40:20.652Z,56.40
2017-06-08T12:42:49.150Z,57.50
2017-06-08T12:45:18.240Z,56.20
2017-06-08T12:47:46.631Z,56.20
2017-06-08T12:50:16.011Z,56.40
2017-06-08T12:52:45.196Z,55.90
2017-06-08T12:55:13.591Z,55.80
2017-06-08T12:57:42.651Z,55.30
2017-06-08T13:00:10.976Z,55.10
2017-06-08T13:02:39.309Z,55.20
2017-06-08T13:05:07.714Z,54.90
2017-06-08T13:07:37.740Z,54.10
2017-06-08T13:10:06.807Z,52.30
2017-06-08T13:12:35.932Z,52.10
2017-06-08T13:15:05.008Z,51.20
2017-06-08T13:17:33.400Z,51.60
2017-06-08T13:20:02.710Z,51.30
2017-06-08T13:22:31.019Z,51.10
2017-06-08T13:24:59.319Z,51.20
2017-06-08T13:27:27.792Z,50.40
2017-06-08T13:29:56.213Z,51.10
2017-06-08T13:32:25.316Z,51.30
2017-06-08T13:34:54.374Z,51.30
2017-06-08T13:37:23.630Z,51.10
2017-06-08T13:39:51.966Z,51.00
2017-06-08T13:42:21.174Z,50.60
2017-06-08T13:44:49.647Z,51.10
2017-06-08T13:47:18.179Z,50.90
2017-06-08T13:49:46.507Z,51.00
2017-06-08T13:52:15.914Z,50.30
2017-06-08T13:54:45.159Z,49.30
2017-06-08T13:57:13.494Z,49.20
2017-06-08T13:59:41.808Z,49.20
2017-06-08T14:02:10.244Z,49.50
2017-06-08T14:04:39.321Z,49.70
2017-06-08T14:07:07.818Z,49.60
2017-06-08T14:09:36.188Z,49.20
2017-06-08T14:12:05.297Z,49.90
2017-06-08T14:14:34.463Z,49.40
2017-06-08T14:17:02.962Z,49.40
2017-06-08T14:19:32.066Z,49.10
2017-06-08T14:22:01.126Z,48.90
2017-06-08T14:24:29.584Z,48.80
2017-06-08T14:26:58.121Z,49.10
2017-06-08T14:29:27.217Z,49.40
2017-06-08T14:31:55.736Z,49.40
2017-06-08T14:34:24.076Z,50.00
2017-06-08T14:36:52.462Z,49.80
2017-06-08T14:39:21.234Z,49.90
2017-06-08T14:41:49.613Z,50.70
2017-06-08T14:44:19.260Z,49.80
2017-06-08T14:46:47.824Z,49.80
2017-06-08T14:49:16.815Z,50.30
2017-06-08T14:51:45.689Z,50.70
2017-06-08T14:54:14.072Z,51.20
2017-06-08T14:56:42.387Z,51.70
2017-06-08T14:59:10.818Z,51.60
2017-06-08T15:01:39.911Z,54.40
2017-06-08T15:04:08.289Z,54.30
2017-06-08T15:06:37.400Z,57.80
2017-06-08T15:09:05.969Z,57.70
2017-06-08T15:11:35.079Z,59.60
2017-06-08T15:14:03.384Z,59.60
2017-06-08T15:16:31.715Z,61.30
2017-06-08T15:19:00.198Z,60.80
2017-06-08T15:21:29.700Z,62.80
2017-06-08T15:23:58.770Z,62.70
2017-06-08T15:26:27.076Z,62.60
2017-06-08T15:28:55.455Z,61.80
2017-06-08T15:31:23.762Z,60.90
2017-06-08T15:33:52.299Z,61.90
2017-06-08T15:36:20.631Z,61.40
2017-06-08T15:38:48.963Z,62.90
2017-06-08T15:41:18.055Z,63.30
2017-06-08T15:43:47.151Z,64.00
2017-06-08T15:46:15.884Z,63.90
2017-06-08T15:48:44.196Z,63.00
2017-06-08T15:51:12.491Z,61.90
2017-06-08T15:53:41.170Z,61.20
2017-06-08T15:56:10.251Z,61.90
2017-06-08T15:58:38.547Z,61.70
2017-06-08T16:01:07.754Z,60.70
2017-06-08T16:03:36.064Z,60.60
2017-06-08T16:06:04.405Z,60.20
2017-06-08T16:08:33.491Z,59.80
2017-06-08T16:11:02.177Z,59.70
2017-06-08T16:13:31.239Z,59.20
2017-06-08T16:15:59.551Z,58.70
2017-06-08T16:18:28.024Z,58.50
2017-06-08T16:20:57.090Z,58.50
2017-06-08T16:23:25.397Z,58.10
2017-06-08T16:25:54.590Z,57.80
2017-06-08T16:28:22.983Z,57.70
2017-06-08T16:30:52.062Z,57.20
2017-06-08T16:33:21.141Z,56.80
2017-06-08T16:35:49.758Z,56.80
2017-06-08T16:38:18.803Z,57.20
2017-06-08T16:40:47.451Z,56.50
2017-06-08T16:43:15.768Z,56.50
2017-06-08T16:45:44.180Z,56.70
2017-06-08T16:48:12.492Z,56.70
2017-06-08T16:50:40.832Z,56.80
2017-06-08T16:53:09.148Z,56.60
2017-06-08T16:55:37.478Z,56.80
2017-06-08T16:58:06.277Z,56.30
2017-06-08T17:00:34.752Z,56.90
2017-06-08T17:03:03.091Z,57.50
2017-06-08T17:05:31.440Z,57.50
2017-06-08T17:07:59.791Z,57.70
2017-06-08T17:10:28.380Z,57.60
2017-06-08T17:12:56.715Z,58.00
2017-06-08T17:15:25.034Z,58.40
2017-06-08T17:17:53.402Z,58.70
2017-06-08T17:20:21.736Z,58.80
2017-06-08T17:22:50.156Z,59.50
2017-06-08T17:25:18.447Z,60.00
2017-06-08T17:27:47.023Z,61.20
2017-06-08T17:30:15.575Z,61.90
2017-06-08T17:32:43.912Z,62.70
2017-06-08T17:35:12.352Z,63.70
2017-06-08T17:37:40.640Z,64.00
2017-06-08T17:40:09.087Z,65.10
2017-06-08T17:42:37.394Z,66.40
2017-06-08T17:45:05.896Z,67.20
2017-06-08T17:47:34.555Z,67.90
2017-06-08T17:50:03.613Z,69.30
2017-06-08T17:52:31.930Z,69.30
2017-06-08T17:55:00.265Z,70.40
2017-06-08T17:57:28.682Z,71.10
2017-06-08T17:59:57.084Z,72.00
2017-06-08T18:02:25.539Z,72.70
2017-06-08T18:04:53.840Z,73.60
2017-06-08T18:07:22.235Z,74.40
2017-06-08T18:09:50.563Z,74.80
2017-06-08T18:12:18.948Z,75.50
2017-06-08T18:14:47.375Z,75.80
2017-06-08T18:17:15.690Z,76.20
2017-06-08T18:19:43.978Z,76.50
2017-06-08T18:22:13.173Z,76.50
2017-06-08T18:24:42.241Z,76.60
2017-06-08T18:27:10.649Z,76.40
2017-06-08T18:29:39.084Z,76.40
2017-06-08T18:32:07.558Z,76.00
2017-06-08T18:34:35.858Z,76.30
2017-06-08T18:37:04.156Z,76.80
2017-06-08T18:39:33.252Z,77.30
2017-06-08T18:42:01.554Z,77.20
2017-06-08T18:44:30.100Z,77.60
2017-06-08T18:46:58.487Z,78.10
2017-06-08T18:49:26.866Z,79.30
2017-06-08T18:51:55.241Z,79.90
2017-06-08T18:54:24.537Z,80.90
2017-06-08T18:56:52.925Z,80.90
2017-06-08T18:59:21.296Z,81.10
2017-06-08T19:01:50.493Z,82.00
2017-06-08T19:04:18.807Z,81.80
2017-06-08T19:06:47.462Z,82.20
2017-06-08T19:09:15.779Z,82.80
2017-06-08T19:11:44.082Z,83.30
2017-06-08T19:14:12.391Z,83.80
2017-06-08T19:16:40.692Z,84.20
2017-06-08T19:19:09.053Z,84.70
2017-06-08T19:21:38.103Z,85.70
2017-06-08T19:24:06.441Z,85.60
2017-06-08T19:26:34.813Z,85.70
2017-06-08T19:29:03.370Z,85.60
2017-06-08T19:31:31.754Z,85.60
2017-06-08T19:34:00.284Z,85.90
2017-06-08T19:36:28.603Z,85.70
2017-06-08T19:38:58.030Z,87.30
2017-06-08T19:41:26.391Z,87.20
2017-06-08T19:43:54.707Z,86.90
2017-06-08T19:46:23.040Z,87.40
2017-06-08T19:48:51.415Z,88.00
2017-06-08T19:51:19.877Z,87.60
2017-06-08T19:53:48.167Z,87.90
2017-06-08T19:56:16.863Z,88.10
2017-06-08T19:58:45.916Z,87.60
2017-06-08T20:01:14.218Z,88.00
2017-06-08T20:03:43.465Z,88.10
2017-06-08T20:06:11.835Z,88.10
2017-06-08T20:08:40.391Z,87.70
2017-06-08T20:11:08.759Z,87.90
2017-06-08T20:13:37.855Z,87.70
2017-06-08T20:16:06.182Z,87.70
2017-06-08T20:18:34.479Z,88.00
2017-06-08T20:21:02.795Z,88.30
2017-06-08T20:23:31.887Z,88.10
2017-06-08T20:26:00.368Z,88.10
2017-06-08T20:28:29.269Z,88.20
2017-06-08T20:30:57.600Z,87.80
2017-06-08T20:33:25.940Z,87.80
2017-06-08T20:35:54.271Z,87.10
2017-06-08T20:38:23.181Z,87.50
2017-06-08T20:40:51.509Z,87.60
2017-06-08T20:43:20.039Z,87.40
2017-06-08T20:45:48.375Z,87.30
2017-06-08T20:48:16.683Z,87.40
2017-06-08T20:50:46.025Z,87.70
2017-06-08T20:53:14.326Z,87.60
2017-06-08T20:55:42.649Z,87.90
2017-06-08T20:58:10.983Z,87.30
2017-06-08T21:00:39.333Z,87.70
2017-06-08T21:03:07.975Z,87.40
2017-06-08T21:05:37.075Z,89.00
2017-06-08T21:08:05.368Z,88.30
2017-06-08T21:10:33.696Z,88.20
2017-06-08T21:13:02.031Z,88.00
2017-06-08T21:15:30.480Z,88.50
2017-06-08T21:17:59.551Z,89.50
2017-06-08T21:20:28.648Z,89.10
2017-06-08T21:22:56.967Z,89.00
2017-06-08T21:25:25.337Z,89.10
2017-06-08T21:27:54.634Z,90.20
2017-06-08T21:30:22.956Z,90.10
2017-06-08T21:32:52.143Z,90.00
2017-06-08T21:35:20.479Z,90.10
2017-06-08T21:37:48.863Z,90.50
2017-06-08T21:40:17.539Z,90.70
2017-06-08T21:42:46.606Z,90.40
2017-06-08T21:45:15.284Z,90.70
2017-06-08T21:47:44.488Z,90.70
2017-06-08T21:50:12.902Z,90.70
2017-06-08T21:52:42.315Z,90.70
2017-06-08T21:55:10.664Z,90.70
2017-06-08T21:57:38.995Z,90.90
2017-06-08T22:00:07.437Z,90.60
2017-06-08T22:02:35.818Z,90.20
2017-06-08T22:05:04.177Z,90.20
2017-06-08T22:07:32.600Z,90.70
2017-06-08T22:10:01.245Z,90.60
2017-06-08T22:12:29.619Z,90.40
2017-06-08T22:14:57.994Z,90.50
2017-06-08T22:17:26.388Z,90.70
2017-06-08T22:19:54.763Z,90.70
2017-06-08T22:22:23.349Z,90.80
2017-06-08T22:24:52.492Z,90.60
2017-06-08T22:27:20.915Z,90.40
2017-06-08T22:29:49.273Z,90.40
2017-06-08T22:32:18.372Z,90.20
2017-06-08T22:34:48.079Z,90.20
2017-06-08T22:37:17.187Z,90.10
2017-06-08T22:39:45.527Z,90.00
2017-06-08T22:42:13.891Z,90.00
2017-06-08T22:44:42.339Z,90.00
2017-06-08T22:47:10.658Z,89.90
2017-06-08T22:49:39.198Z,90.00
2017-06-08T22:52:07.507Z,89.90
2017-06-08T22:54:36.054Z,89.90
2017-06-08T22:57:04.534Z,89.90
2017-06-08T22:59:33.759Z,89.50
2017-06-08T23:02:02.106Z,89.50
2017-06-08T23:04:30.460Z,89.20
2017-06-08T23:06:59.273Z,89.10
2017-06-08T23:09:27.960Z,89.00
2017-06-08T23:11:56.277Z,88.90
2017-06-08T23:14:24.598Z,88.40
2017-06-08T23:16:53.694Z,88.50
2017-06-08T23:19:22.188Z,88.50
2017-06-08T23:21:50.764Z,88.40
2017-06-08T23:24:19.087Z,88.30
2017-06-08T23:26:48.134Z,87.90
2017-06-08T23:29:16.513Z,88.30
2017-06-08T23:31:44.827Z,88.70
2017-06-08T23:34:13.172Z,88.10
2017-06-08T23:36:41.755Z,87.80
2017-06-08T23:39:10.945Z,87.20
2017-06-08T23:41:39.334Z,87.10
2017-06-08T23:44:07.700Z,87.20
2017-06-08T23:46:36.097Z,86.80
2017-06-08T23:49:05.385Z,87.40
2017-06-08T23:51:33.712Z,87.20
2017-06-08T23:54:02.114Z,87.10
2017-06-08T23:56:30.703Z,87.30
2017-06-08T23:58:58.999Z,87.00
